sensor_id;sensor_type;location;lat;lon;timestamp;P1;durP1;ratioP1;P2;durP2;ratioP2
49326;SDS011;35819;44.498;0.166;2022-10-16T00:01:14;9.15;;;3.40;;
49326;SDS011;35819;44.498;0.166;2022-10-16T00:03:42;11.57;;;7.03;;
49326;SDS011;35819;44.498;0.166;2022-10-16T00:06:09;7.90;;;5.63;;
49326;SDS011;35819;44.498;0.166;2022-10-16T00:08:36;6.15;;;2.92;;
49326;SDS011;35819;44.498;0.166;2022-10-16T00:11:04;8.35;;;3.80;;
49326;SDS011;35819;44.498;0.166;2022-10-16T00:13:32;6.13;;;5.18;;
49326;SDS011;35819;44.498;0.166;2022-10-16T00:16:00;8.23;;;3.45;;
49326;SDS011;35819;44.498;0.166;2022-10-16T00:18:26;9.98;;;5.05;;
49326;SDS011;35819;44.498;0.166;2022-10-16T00:20:53;8.07;;;6.65;;
49326;SDS011;35819;44.498;0.166;2022-10-16T00:23:19;9.00;;;4.70;;
49326;SDS011;35819;44.498;0.166;2022-10-16T00:25:53;30.40;;;6.65;;
49326;SDS011;35819;44.498;0.166;2022-10-16T00:28:21;5.45;;;3.60;;
49326;SDS011;35819;44.498;0.166;2022-10-16T00:30:46;7.82;;;4.43;;
49326;SDS011;35819;44.498;0.166;2022-10-16T00:33:12;5.18;;;4.80;;
49326;SDS011;35819;44.498;0.166;2022-10-16T00:35:38;5.10;;;4.22;;
49326;SDS011;35819;44.498;0.166;2022-10-16T00:38:04;13.15;;;6.38;;
49326;SDS011;35819;44.498;0.166;2022-10-16T00:40:29;6.55;;;5.50;;
49326;SDS011;35819;44.498;0.166;2022-10-16T00:42:56;5.45;;;4.90;;
49326;SDS011;35819;44.498;0.166;2022-10-16T00:45:22;6.35;;;5.60;;
49326;SDS011;35819;44.498;0.166;2022-10-16T00:47:48;6.35;;;5.75;;
49326;SDS011;35819;44.498;0.166;2022-10-16T00:53:00;5.25;;;4.85;;
49326;SDS011;35819;44.498;0.166;2022-10-16T00:55:27;6.70;;;5.35;;
49326;SDS011;35819;44.498;0.166;2022-10-16T00:57:55;6.63;;;6.00;;
49326;SDS011;35819;44.498;0.166;2022-10-16T01:00:24;4.43;;;4.03;;
49326;SDS011;35819;44.498;0.166;2022-10-16T01:02:53;4.72;;;4.20;;
49326;SDS011;35819;44.498;0.166;2022-10-16T01:05:23;8.13;;;5.60;;
49326;SDS011;35819;44.498;0.166;2022-10-16T01:08:04;13.25;;;4.28;;
49326;SDS011;35819;44.498;0.166;2022-10-16T01:10:38;4.32;;;4.03;;
49326;SDS011;35819;44.498;0.166;2022-10-16T01:13:17;6.70;;;5.70;;
49326;SDS011;35819;44.498;0.166;2022-10-16T01:16:01;5.35;;;4.90;;
49326;SDS011;35819;44.498;0.166;2022-10-16T01:18:42;5.47;;;5.07;;
49326;SDS011;35819;44.498;0.166;2022-10-16T01:24:08;4.78;;;4.32;;
49326;SDS011;35819;44.498;0.166;2022-10-16T01:27:08;8.82;;;4.72;;
49326;SDS011;35819;44.498;0.166;2022-10-16T01:29:53;7.25;;;4.38;;
49326;SDS011;35819;44.498;0.166;2022-10-16T01:32:42;5.03;;;4.63;;
49326;SDS011;35819;44.498;0.166;2022-10-16T01:40:27;7.70;;;5.82;;
49326;SDS011;35819;44.498;0.166;2022-10-16T01:43:03;6.80;;;5.13;;
49326;SDS011;35819;44.498;0.166;2022-10-16T01:45:33;14.00;;;5.72;;
49326;SDS011;35819;44.498;0.166;2022-10-16T01:48:01;13.93;;;6.55;;
49326;SDS011;35819;44.498;0.166;2022-10-16T01:50:31;4.82;;;4.53;;
49326;SDS011;35819;44.498;0.166;2022-10-16T01:53:00;10.10;;;5.60;;
49326;SDS011;35819;44.498;0.166;2022-10-16T01:55:29;6.22;;;5.72;;
49326;SDS011;35819;44.498;0.166;2022-10-16T01:57:58;5.75;;;4.55;;
49326;SDS011;35819;44.498;0.166;2022-10-16T02:00:27;6.18;;;5.53;;
49326;SDS011;35819;44.498;0.166;2022-10-16T02:02:53;4.25;;;4.05;;
49326;SDS011;35819;44.498;0.166;2022-10-16T02:05:23;10.05;;;8.15;;
49326;SDS011;35819;44.498;0.166;2022-10-16T02:08:09;6.20;;;3.63;;
49326;SDS011;35819;44.498;0.166;2022-10-16T02:10:36;8.82;;;4.97;;
49326;SDS011;35819;44.498;0.166;2022-10-16T02:13:13;8.35;;;4.93;;
49326;SDS011;35819;44.498;0.166;2022-10-16T02:15:48;15.75;;;6.47;;
49326;SDS011;35819;44.498;0.166;2022-10-16T02:18:13;11.00;;;4.72;;
49326;SDS011;35819;44.498;0.166;2022-10-16T02:20:42;5.65;;;5.15;;
49326;SDS011;35819;44.498;0.166;2022-10-16T02:23:18;6.07;;;4.00;;
49326;SDS011;35819;44.498;0.166;2022-10-16T02:25:49;5.85;;;5.45;;
49326;SDS011;35819;44.498;0.166;2022-10-16T02:28:19;3.53;;;3.33;;
49326;SDS011;35819;44.498;0.166;2022-10-16T02:30:52;8.93;;;5.32;;
49326;SDS011;35819;44.498;0.166;2022-10-16T02:33:22;17.98;;;6.32;;
49326;SDS011;35819;44.498;0.166;2022-10-16T02:35:50;5.45;;;5.03;;
49326;SDS011;35819;44.498;0.166;2022-10-16T02:38:17;5.70;;;4.90;;
49326;SDS011;35819;44.498;0.166;2022-10-16T02:40:44;8.80;;;5.32;;
49326;SDS011;35819;44.498;0.166;2022-10-16T02:43:10;3.17;;;2.80;;
49326;SDS011;35819;44.498;0.166;2022-10-16T02:45:37;6.32;;;4.13;;
49326;SDS011;35819;44.498;0.166;2022-10-16T02:48:03;11.40;;;5.57;;
49326;SDS011;35819;44.498;0.166;2022-10-16T02:50:29;8.80;;;4.28;;
49326;SDS011;35819;44.498;0.166;2022-10-16T02:52:54;6.13;;;3.58;;
49326;SDS011;35819;44.498;0.166;2022-10-16T02:55:20;7.07;;;4.22;;
49326;SDS011;35819;44.498;0.166;2022-10-16T02:57:46;6.35;;;4.93;;
49326;SDS011;35819;44.498;0.166;2022-10-16T03:00:13;4.20;;;3.72;;
49326;SDS011;35819;44.498;0.166;2022-10-16T03:02:41;4.38;;;3.97;;
49326;SDS011;35819;44.498;0.166;2022-10-16T03:05:08;7.38;;;5.50;;
49326;SDS011;35819;44.498;0.166;2022-10-16T03:07:34;3.85;;;3.47;;
49326;SDS011;35819;44.498;0.166;2022-10-16T03:10:00;5.93;;;5.53;;
49326;SDS011;35819;44.498;0.166;2022-10-16T03:12:26;7.45;;;4.32;;
49326;SDS011;35819;44.498;0.166;2022-10-16T03:14:53;5.80;;;3.85;;
49326;SDS011;35819;44.498;0.166;2022-10-16T03:17:19;4.95;;;4.63;;
49326;SDS011;35819;44.498;0.166;2022-10-16T03:19:44;5.10;;;4.80;;
49326;SDS011;35819;44.498;0.166;2022-10-16T03:22:10;20.95;;;4.88;;
49326;SDS011;35819;44.498;0.166;2022-10-16T03:24:36;12.23;;;5.55;;
49326;SDS011;35819;44.498;0.166;2022-10-16T03:27:02;8.75;;;5.78;;
49326;SDS011;35819;44.498;0.166;2022-10-16T03:29:28;4.95;;;4.55;;
49326;SDS011;35819;44.498;0.166;2022-10-16T03:31:54;5.55;;;4.93;;
49326;SDS011;35819;44.498;0.166;2022-10-16T03:34:21;14.23;;;5.90;;
49326;SDS011;35819;44.498;0.166;2022-10-16T03:36:47;4.40;;;4.00;;
49326;SDS011;35819;44.498;0.166;2022-10-16T03:39:13;4.63;;;4.30;;
49326;SDS011;35819;44.498;0.166;2022-10-16T03:41:40;7.60;;;5.32;;
49326;SDS011;35819;44.498;0.166;2022-10-16T03:44:06;4.28;;;4.03;;
49326;SDS011;35819;44.498;0.166;2022-10-16T03:46:32;4.63;;;4.15;;
49326;SDS011;35819;44.498;0.166;2022-10-16T03:48:57;4.97;;;4.53;;
49326;SDS011;35819;44.498;0.166;2022-10-16T03:51:23;5.10;;;4.80;;
49326;SDS011;35819;44.498;0.166;2022-10-16T03:53:49;4.18;;;3.88;;
49326;SDS011;35819;44.498;0.166;2022-10-16T03:56:15;5.55;;;4.47;;
49326;SDS011;35819;44.498;0.166;2022-10-16T03:58:41;6.60;;;6.00;;
49326;SDS011;35819;44.498;0.166;2022-10-16T04:01:07;8.80;;;6.28;;
49326;SDS011;35819;44.498;0.166;2022-10-16T04:03:33;7.68;;;7.05;;
49326;SDS011;35819;44.498;0.166;2022-10-16T04:05:58;8.63;;;7.22;;
49326;SDS011;35819;44.498;0.166;2022-10-16T04:08:24;5.85;;;5.20;;
49326;SDS011;35819;44.498;0.166;2022-10-16T04:10:50;7.50;;;6.80;;
49326;SDS011;35819;44.498;0.166;2022-10-16T04:13:16;8.30;;;7.53;;
49326;SDS011;35819;44.498;0.166;2022-10-16T04:15:42;4.18;;;3.88;;
49326;SDS011;35819;44.498;0.166;2022-10-16T04:18:09;9.90;;;6.22;;
49326;SDS011;35819;44.498;0.166;2022-10-16T04:20:35;6.72;;;6.00;;
49326;SDS011;35819;44.498;0.166;2022-10-16T04:23:00;6.78;;;5.63;;
49326;SDS011;35819;44.498;0.166;2022-10-16T04:25:26;14.20;;;5.82;;
49326;SDS011;35819;44.498;0.166;2022-10-16T04:27:53;11.80;;;7.35;;
49326;SDS011;35819;44.498;0.166;2022-10-16T04:30:19;11.80;;;6.07;;
49326;SDS011;35819;44.498;0.166;2022-10-16T04:32:49;6.60;;;5.28;;
49326;SDS011;35819;44.498;0.166;2022-10-16T04:35:16;10.38;;;6.43;;
49326;SDS011;35819;44.498;0.166;2022-10-16T04:37:46;9.52;;;8.65;;
49326;SDS011;35819;44.498;0.166;2022-10-16T04:40:12;4.22;;;3.80;;
49326;SDS011;35819;44.498;0.166;2022-10-16T04:42:38;6.95;;;6.35;;
49326;SDS011;35819;44.498;0.166;2022-10-16T04:45:05;10.35;;;6.70;;
49326;SDS011;35819;44.498;0.166;2022-10-16T04:47:31;7.43;;;6.35;;
49326;SDS011;35819;44.498;0.166;2022-10-16T04:49:57;7.25;;;6.75;;
49326;SDS011;35819;44.498;0.166;2022-10-16T04:52:23;8.38;;;5.97;;
49326;SDS011;35819;44.498;0.166;2022-10-16T04:54:50;11.25;;;5.97;;
49326;SDS011;35819;44.498;0.166;2022-10-16T04:57:16;7.32;;;5.10;;
49326;SDS011;35819;44.498;0.166;2022-10-16T04:59:42;9.90;;;8.52;;
49326;SDS011;35819;44.498;0.166;2022-10-16T05:02:08;7.30;;;6.70;;
49326;SDS011;35819;44.498;0.166;2022-10-16T05:04:34;6.72;;;6.00;;
49326;SDS011;35819;44.498;0.166;2022-10-16T05:06:59;11.10;;;6.55;;
49326;SDS011;35819;44.498;0.166;2022-10-16T05:09:25;9.70;;;6.68;;
49326;SDS011;35819;44.498;0.166;2022-10-16T05:11:51;8.70;;;6.82;;
49326;SDS011;35819;44.498;0.166;2022-10-16T05:14:17;7.47;;;5.70;;
49326;SDS011;35819;44.498;0.166;2022-10-16T05:16:43;7.85;;;7.15;;
49326;SDS011;35819;44.498;0.166;2022-10-16T05:19:09;9.80;;;6.28;;
49326;SDS011;35819;44.498;0.166;2022-10-16T05:21:35;6.88;;;6.38;;
49326;SDS011;35819;44.498;0.166;2022-10-16T05:24:01;10.60;;;8.25;;
49326;SDS011;35819;44.498;0.166;2022-10-16T05:26:26;7.72;;;6.80;;
49326;SDS011;35819;44.498;0.166;2022-10-16T05:28:52;8.48;;;7.25;;
49326;SDS011;35819;44.498;0.166;2022-10-16T05:31:18;8.15;;;7.45;;
49326;SDS011;35819;44.498;0.166;2022-10-16T05:33:43;9.43;;;8.35;;
49326;SDS011;35819;44.498;0.166;2022-10-16T05:36:09;6.53;;;6.03;;
49326;SDS011;35819;44.498;0.166;2022-10-16T05:38:36;9.63;;;8.68;;
49326;SDS011;35819;44.498;0.166;2022-10-16T05:41:02;7.53;;;6.38;;
49326;SDS011;35819;44.498;0.166;2022-10-16T05:43:29;8.80;;;5.85;;
49326;SDS011;35819;44.498;0.166;2022-10-16T05:45:57;7.55;;;6.85;;
49326;SDS011;35819;44.498;0.166;2022-10-16T05:48:25;15.98;;;9.07;;
49326;SDS011;35819;44.498;0.166;2022-10-16T05:51:02;7.60;;;7.00;;
49326;SDS011;35819;44.498;0.166;2022-10-16T05:53:32;7.32;;;6.75;;
49326;SDS011;35819;44.498;0.166;2022-10-16T05:55:59;14.00;;;8.50;;
49326;SDS011;35819;44.498;0.166;2022-10-16T05:58:27;7.40;;;6.85;;
49326;SDS011;35819;44.498;0.166;2022-10-16T06:00:55;8.55;;;7.90;;
49326;SDS011;35819;44.498;0.166;2022-10-16T06:03:22;8.90;;;8.00;;
49326;SDS011;35819;44.498;0.166;2022-10-16T06:05:48;11.23;;;9.00;;
49326;SDS011;35819;44.498;0.166;2022-10-16T06:08:14;8.50;;;7.70;;
49326;SDS011;35819;44.498;0.166;2022-10-16T06:10:40;9.00;;;7.70;;
49326;SDS011;35819;44.498;0.166;2022-10-16T06:13:06;8.45;;;6.05;;
49326;SDS011;35819;44.498;0.166;2022-10-16T06:15:31;11.02;;;8.68;;
49326;SDS011;35819;44.498;0.166;2022-10-16T06:17:57;12.52;;;9.80;;
49326;SDS011;35819;44.498;0.166;2022-10-16T06:20:23;10.18;;;8.52;;
49326;SDS011;35819;44.498;0.166;2022-10-16T06:22:48;7.88;;;7.18;;
49326;SDS011;35819;44.498;0.166;2022-10-16T06:25:14;9.63;;;8.10;;
49326;SDS011;35819;44.498;0.166;2022-10-16T06:27:40;8.45;;;7.65;;
49326;SDS011;35819;44.498;0.166;2022-10-16T06:30:06;8.57;;;7.90;;
49326;SDS011;35819;44.498;0.166;2022-10-16T06:32:32;11.90;;;9.43;;
49326;SDS011;35819;44.498;0.166;2022-10-16T06:34:58;9.60;;;8.63;;
49326;SDS011;35819;44.498;0.166;2022-10-16T06:37:24;10.95;;;9.82;;
49326;SDS011;35819;44.498;0.166;2022-10-16T06:39:50;7.65;;;6.95;;
49326;SDS011;35819;44.498;0.166;2022-10-16T06:42:18;7.63;;;6.85;;
49326;SDS011;35819;44.498;0.166;2022-10-16T06:44:44;13.80;;;8.38;;
49326;SDS011;35819;44.498;0.166;2022-10-16T06:47:10;10.88;;;7.00;;
49326;SDS011;35819;44.498;0.166;2022-10-16T06:49:35;10.43;;;9.23;;
49326;SDS011;35819;44.498;0.166;2022-10-16T06:52:01;9.38;;;8.20;;
49326;SDS011;35819;44.498;0.166;2022-10-16T06:54:27;11.07;;;8.13;;
49326;SDS011;35819;44.498;0.166;2022-10-16T06:56:53;12.52;;;11.20;;
49326;SDS011;35819;44.498;0.166;2022-10-16T06:59:20;10.15;;;9.18;;
49326;SDS011;35819;44.498;0.166;2022-10-16T07:01:46;10.73;;;9.60;;
49326;SDS011;35819;44.498;0.166;2022-10-16T07:04:12;8.85;;;8.13;;
49326;SDS011;35819;44.498;0.166;2022-10-16T07:06:38;9.30;;;8.38;;
49326;SDS011;35819;44.498;0.166;2022-10-16T07:09:05;8.73;;;7.93;;
49326;SDS011;35819;44.498;0.166;2022-10-16T07:11:33;8.57;;;7.73;;
49326;SDS011;35819;44.498;0.166;2022-10-16T07:14:01;12.35;;;7.93;;
49326;SDS011;35819;44.498;0.166;2022-10-16T07:16:28;12.20;;;8.90;;
49326;SDS011;35819;44.498;0.166;2022-10-16T07:18:57;10.85;;;8.65;;
49326;SDS011;35819;44.498;0.166;2022-10-16T07:21:24;9.25;;;8.15;;
49326;SDS011;35819;44.498;0.166;2022-10-16T07:23:53;13.15;;;8.82;;
49326;SDS011;35819;44.498;0.166;2022-10-16T07:26:21;9.52;;;7.90;;
49326;SDS011;35819;44.498;0.166;2022-10-16T07:28:48;7.70;;;6.95;;
49326;SDS011;35819;44.498;0.166;2022-10-16T07:31:15;12.05;;;8.82;;
49326;SDS011;35819;44.498;0.166;2022-10-16T07:33:42;12.70;;;9.15;;
49326;SDS011;35819;44.498;0.166;2022-10-16T07:36:10;8.75;;;7.55;;
49326;SDS011;35819;44.498;0.166;2022-10-16T07:38:37;9.15;;;8.32;;
49326;SDS011;35819;44.498;0.166;2022-10-16T07:41:04;11.57;;;8.85;;
49326;SDS011;35819;44.498;0.166;2022-10-16T07:43:31;12.13;;;7.70;;
49326;SDS011;35819;44.498;0.166;2022-10-16T07:45:58;13.57;;;8.05;;
49326;SDS011;35819;44.498;0.166;2022-10-16T07:48:26;9.68;;;6.70;;
49326;SDS011;35819;44.498;0.166;2022-10-16T07:50:56;7.97;;;6.73;;
49326;SDS011;35819;44.498;0.166;2022-10-16T07:53:26;7.32;;;6.63;;
49326;SDS011;35819;44.498;0.166;2022-10-16T07:55:56;8.73;;;8.00;;
49326;SDS011;35819;44.498;0.166;2022-10-16T07:58:25;8.63;;;8.02;;
49326;SDS011;35819;44.498;0.166;2022-10-16T08:00:51;10.05;;;7.78;;
49326;SDS011;35819;44.498;0.166;2022-10-16T08:03:17;8.75;;;7.80;;
49326;SDS011;35819;44.498;0.166;2022-10-16T08:05:43;8.48;;;7.75;;
49326;SDS011;35819;44.498;0.166;2022-10-16T08:08:11;9.52;;;8.65;;
49326;SDS011;35819;44.498;0.166;2022-10-16T08:13:04;10.98;;;9.80;;
49326;SDS011;35819;44.498;0.166;2022-10-16T08:15:30;13.32;;;8.98;;
49326;SDS011;35819;44.498;0.166;2022-10-16T08:18:03;10.35;;;9.48;;
49326;SDS011;35819;44.498;0.166;2022-10-16T08:20:30;8.93;;;8.10;;
49326;SDS011;35819;44.498;0.166;2022-10-16T08:22:59;9.75;;;8.50;;
49326;SDS011;35819;44.498;0.166;2022-10-16T08:25:25;10.75;;;9.70;;
49326;SDS011;35819;44.498;0.166;2022-10-16T08:27:51;11.45;;;10.43;;
49326;SDS011;35819;44.498;0.166;2022-10-16T08:30:18;11.23;;;8.80;;
49326;SDS011;35819;44.498;0.166;2022-10-16T08:32:45;9.13;;;8.10;;
49326;SDS011;35819;44.498;0.166;2022-10-16T08:35:11;11.55;;;9.50;;
49326;SDS011;35819;44.498;0.166;2022-10-16T08:37:38;9.00;;;8.30;;
49326;SDS011;35819;44.498;0.166;2022-10-16T08:40:04;11.75;;;8.52;;
49326;SDS011;35819;44.498;0.166;2022-10-16T08:47:57;5.78;;;5.32;;
49326;SDS011;35819;44.498;0.166;2022-10-16T08:50:48;7.13;;;5.35;;
49326;SDS011;35819;44.498;0.166;2022-10-16T08:53:22;8.13;;;4.47;;
49326;SDS011;35819;44.498;0.166;2022-10-16T08:55:53;5.95;;;5.35;;
49326;SDS011;35819;44.498;0.166;2022-10-16T08:58:20;6.88;;;6.28;;
49326;SDS011;35819;44.498;0.166;2022-10-16T09:00:49;8.05;;;4.72;;
49326;SDS011;35819;44.498;0.166;2022-10-16T09:09:26;10.15;;;6.35;;
49326;SDS011;35819;44.498;0.166;2022-10-16T09:14:47;7.20;;;5.35;;
49326;SDS011;35819;44.498;0.166;2022-10-16T09:17:39;7.85;;;4.32;;
49326;SDS011;35819;44.498;0.166;2022-10-16T09:20:19;8.98;;;4.75;;
49326;SDS011;35819;44.498;0.166;2022-10-16T09:22:48;7.35;;;4.68;;
49326;SDS011;35819;44.498;0.166;2022-10-16T09:25:17;5.47;;;5.05;;
49326;SDS011;35819;44.498;0.166;2022-10-16T09:27:47;6.95;;;5.22;;
49326;SDS011;35819;44.498;0.166;2022-10-16T09:30:17;4.22;;;3.78;;
49326;SDS011;35819;44.498;0.166;2022-10-16T09:32:45;6.57;;;5.07;;
49326;SDS011;35819;44.498;0.166;2022-10-16T09:35:18;5.50;;;3.97;;
49326;SDS011;35819;44.498;0.166;2022-10-16T09:37:47;6.25;;;4.05;;
49326;SDS011;35819;44.498;0.166;2022-10-16T09:40:25;5.68;;;3.67;;
49326;SDS011;35819;44.498;0.166;2022-10-16T09:42:56;7.93;;;3.65;;
49326;SDS011;35819;44.498;0.166;2022-10-16T09:45:28;13.55;;;5.28;;
49326;SDS011;35819;44.498;0.166;2022-10-16T09:47:53;8.90;;;7.88;;
49326;SDS011;35819;44.498;0.166;2022-10-16T09:50:24;6.07;;;5.38;;
49326;SDS011;35819;44.498;0.166;2022-10-16T09:53:05;14.68;;;6.18;;
49326;SDS011;35819;44.498;0.166;2022-10-16T09:55:35;6.38;;;4.28;;
49326;SDS011;35819;44.498;0.166;2022-10-16T09:58:01;16.48;;;4.22;;
49326;SDS011;35819;44.498;0.166;2022-10-16T10:00:29;7.53;;;5.57;;
49326;SDS011;35819;44.498;0.166;2022-10-16T10:02:55;5.13;;;4.72;;
49326;SDS011;35819;44.498;0.166;2022-10-16T10:05:21;8.60;;;3.90;;
49326;SDS011;35819;44.498;0.166;2022-10-16T10:07:54;6.63;;;4.43;;
49326;SDS011;35819;44.498;0.166;2022-10-16T10:10:25;2.97;;;2.72;;
49326;SDS011;35819;44.498;0.166;2022-10-16T10:12:53;4.70;;;3.78;;
49326;SDS011;35819;44.498;0.166;2022-10-16T10:15:20;7.93;;;4.03;;
49326;SDS011;35819;44.498;0.166;2022-10-16T10:17:52;6.70;;;3.47;;
49326;SDS011;35819;44.498;0.166;2022-10-16T10:20:27;3.75;;;2.95;;
49326;SDS011;35819;44.498;0.166;2022-10-16T10:22:56;7.55;;;3.08;;
49326;SDS011;35819;44.498;0.166;2022-10-16T10:25:44;8.32;;;5.28;;
49326;SDS011;35819;44.498;0.166;2022-10-16T10:34:00;4.68;;;4.38;;
49326;SDS011;35819;44.498;0.166;2022-10-16T10:36:35;10.30;;;4.93;;
49326;SDS011;35819;44.498;0.166;2022-10-16T10:42:05;11.75;;;4.88;;
49326;SDS011;35819;44.498;0.166;2022-10-16T10:50:10;20.20;;;4.30;;
49326;SDS011;35819;44.498;0.166;2022-10-16T11:09:21;6.82;;;5.68;;
49326;SDS011;35819;44.498;0.166;2022-10-16T11:12:11;14.40;;;4.82;;
49326;SDS011;35819;44.498;0.166;2022-10-16T11:17:42;6.90;;;2.92;;
49326;SDS011;35819;44.498;0.166;2022-10-16T11:20:16;4.97;;;3.75;;
49326;SDS011;35819;44.498;0.166;2022-10-16T11:22:53;35.25;;;5.65;;
49326;SDS011;35819;44.498;0.166;2022-10-16T11:25:27;13.60;;;3.40;;
49326;SDS011;35819;44.498;0.166;2022-10-16T11:28:01;5.15;;;4.50;;
49326;SDS011;35819;44.498;0.166;2022-10-16T11:30:53;10.13;;;4.93;;
49326;SDS011;35819;44.498;0.166;2022-10-16T11:33:28;7.80;;;3.67;;
49326;SDS011;35819;44.498;0.166;2022-10-16T11:36:22;8.18;;;6.18;;
49326;SDS011;35819;44.498;0.166;2022-10-16T11:41:35;4.55;;;3.20;;
49326;SDS011;35819;44.498;0.166;2022-10-16T11:49:45;8.30;;;3.70;;
49326;SDS011;35819;44.498;0.166;2022-10-16T11:57:44;4.53;;;3.35;;
49326;SDS011;35819;44.498;0.166;2022-10-16T12:00:23;6.00;;;3.67;;
49326;SDS011;35819;44.498;0.166;2022-10-16T12:08:28;7.38;;;3.92;;
49326;SDS011;35819;44.498;0.166;2022-10-16T12:11:05;3.05;;;2.72;;
49326;SDS011;35819;44.498;0.166;2022-10-16T12:13:45;3.10;;;2.80;;
49326;SDS011;35819;44.498;0.166;2022-10-16T12:18:42;6.18;;;4.05;;
49326;SDS011;35819;44.498;0.166;2022-10-16T12:21:10;4.88;;;4.15;;
49326;SDS011;35819;44.498;0.166;2022-10-16T12:23:53;7.63;;;4.57;;
49326;SDS011;35819;44.498;0.166;2022-10-16T12:26:31;7.18;;;2.58;;
49326;SDS011;35819;44.498;0.166;2022-10-16T12:29:12;18.42;;;2.53;;
49326;SDS011;35819;44.498;0.166;2022-10-16T12:31:47;3.67;;;3.28;;
49326;SDS011;35819;44.498;0.166;2022-10-16T12:37:09;5.32;;;2.78;;
49326;SDS011;35819;44.498;0.166;2022-10-16T12:39:39;7.47;;;4.10;;
49326;SDS011;35819;44.498;0.166;2022-10-16T12:44:54;4.53;;;2.95;;
49326;SDS011;35819;44.498;0.166;2022-10-16T12:47:35;4.35;;;3.95;;
49326;SDS011;35819;44.498;0.166;2022-10-16T12:50:03;4.78;;;3.00;;
49326;SDS011;35819;44.498;0.166;2022-10-16T12:52:50;3.45;;;2.22;;
49326;SDS011;35819;44.498;0.166;2022-10-16T12:55:17;4.78;;;2.72;;
49326;SDS011;35819;44.498;0.166;2022-10-16T13:00:45;6.72;;;3.67;;
49326;SDS011;35819;44.498;0.166;2022-10-16T13:06:33;4.55;;;3.38;;
49326;SDS011;35819;44.498;0.166;2022-10-16T13:12:01;3.65;;;2.13;;
49326;SDS011;35819;44.498;0.166;2022-10-16T13:17:42;4.00;;;2.83;;
49326;SDS011;35819;44.498;0.166;2022-10-16T13:30:19;3.85;;;2.70;;
49326;SDS011;35819;44.498;0.166;2022-10-16T13:32:49;6.57;;;2.78;;
49326;SDS011;35819;44.498;0.166;2022-10-16T13:35:21;14.35;;;4.30;;
49326;SDS011;35819;44.498;0.166;2022-10-16T13:38:02;5.07;;;2.60;;
49326;SDS011;35819;44.498;0.166;2022-10-16T13:40:48;3.38;;;1.67;;
49326;SDS011;35819;44.498;0.166;2022-10-16T13:43:15;3.72;;;3.42;;
49326;SDS011;35819;44.498;0.166;2022-10-16T13:45:52;14.07;;;3.88;;
49326;SDS011;35819;44.498;0.166;2022-10-16T13:48:27;9.43;;;3.15;;
49326;SDS011;35819;44.498;0.166;2022-10-16T13:53:51;13.48;;;4.18;;
49326;SDS011;35819;44.498;0.166;2022-10-16T13:56:18;5.15;;;2.63;;
49326;SDS011;35819;44.498;0.166;2022-10-16T13:58:46;9.40;;;3.72;;
49326;SDS011;35819;44.498;0.166;2022-10-16T14:01:23;4.78;;;2.47;;
49326;SDS011;35819;44.498;0.166;2022-10-16T14:03:53;3.85;;;3.08;;
49326;SDS011;35819;44.498;0.166;2022-10-16T14:06:33;6.07;;;2.20;;
49326;SDS011;35819;44.498;0.166;2022-10-16T14:09:04;6.97;;;3.13;;
49326;SDS011;35819;44.498;0.166;2022-10-16T14:11:44;8.80;;;2.00;;
49326;SDS011;35819;44.498;0.166;2022-10-16T14:14:16;4.85;;;3.22;;
49326;SDS011;35819;44.498;0.166;2022-10-16T14:16:43;2.60;;;2.15;;
49326;SDS011;35819;44.498;0.166;2022-10-16T14:19:13;6.65;;;4.05;;
49326;SDS011;35819;44.498;0.166;2022-10-16T14:21:47;6.90;;;3.50;;
49326;SDS011;35819;44.498;0.166;2022-10-16T14:24:19;7.32;;;3.17;;
49326;SDS011;35819;44.498;0.166;2022-10-16T14:26:50;2.47;;;2.33;;
49326;SDS011;35819;44.498;0.166;2022-10-16T14:29:19;6.38;;;2.47;;
49326;SDS011;35819;44.498;0.166;2022-10-16T14:31:58;7.10;;;2.83;;
49326;SDS011;35819;44.498;0.166;2022-10-16T14:34:32;3.08;;;2.88;;
49326;SDS011;35819;44.498;0.166;2022-10-16T14:37:19;3.05;;;2.55;;
49326;SDS011;35819;44.498;0.166;2022-10-16T14:39:52;10.00;;;4.05;;
49326;SDS011;35819;44.498;0.166;2022-10-16T14:42:20;6.10;;;3.65;;
49326;SDS011;35819;44.498;0.166;2022-10-16T14:44:50;3.85;;;2.30;;
49326;SDS011;35819;44.498;0.166;2022-10-16T14:47:19;4.03;;;2.22;;
49326;SDS011;35819;44.498;0.166;2022-10-16T14:49:49;6.80;;;2.38;;
49326;SDS011;35819;44.498;0.166;2022-10-16T14:52:16;7.82;;;2.50;;
49326;SDS011;35819;44.498;0.166;2022-10-16T14:54:42;10.70;;;5.30;;
49326;SDS011;35819;44.498;0.166;2022-10-16T14:57:16;5.32;;;3.17;;
49326;SDS011;35819;44.498;0.166;2022-10-16T14:59:47;7.05;;;3.63;;
49326;SDS011;35819;44.498;0.166;2022-10-16T15:04:50;4.18;;;3.20;;
49326;SDS011;35819;44.498;0.166;2022-10-16T15:07:16;5.75;;;3.83;;
49326;SDS011;35819;44.498;0.166;2022-10-16T15:09:42;4.57;;;4.13;;
49326;SDS011;35819;44.498;0.166;2022-10-16T15:12:08;11.50;;;5.05;;
49326;SDS011;35819;44.498;0.166;2022-10-16T15:14:33;5.03;;;4.57;;
49326;SDS011;35819;44.498;0.166;2022-10-16T15:16:59;10.23;;;5.32;;
49326;SDS011;35819;44.498;0.166;2022-10-16T15:19:25;8.20;;;3.53;;
49326;SDS011;35819;44.498;0.166;2022-10-16T15:21:51;8.10;;;3.72;;
49326;SDS011;35819;44.498;0.166;2022-10-16T15:24:17;4.85;;;3.58;;
49326;SDS011;35819;44.498;0.166;2022-10-16T15:26:43;18.30;;;2.80;;
49326;SDS011;35819;44.498;0.166;2022-10-16T15:29:11;4.30;;;2.92;;
49326;SDS011;35819;44.498;0.166;2022-10-16T15:31:37;3.13;;;2.55;;
49326;SDS011;35819;44.498;0.166;2022-10-16T15:34:04;8.18;;;3.30;;
49326;SDS011;35819;44.498;0.166;2022-10-16T15:36:34;7.30;;;3.28;;
49326;SDS011;35819;44.498;0.166;2022-10-16T15:39:03;9.10;;;3.20;;
49326;SDS011;35819;44.498;0.166;2022-10-16T15:41:30;12.27;;;4.85;;
49326;SDS011;35819;44.498;0.166;2022-10-16T15:43:56;4.07;;;3.03;;
49326;SDS011;35819;44.498;0.166;2022-10-16T15:46:22;9.48;;;3.95;;
49326;SDS011;35819;44.498;0.166;2022-10-16T15:48:49;9.15;;;2.42;;
49326;SDS011;35819;44.498;0.166;2022-10-16T15:51:20;11.38;;;2.63;;
49326;SDS011;35819;44.498;0.166;2022-10-16T15:53:46;3.17;;;2.88;;
49326;SDS011;35819;44.498;0.166;2022-10-16T15:56:12;13.00;;;2.47;;
49326;SDS011;35819;44.498;0.166;2022-10-16T15:58:39;5.85;;;1.92;;
49326;SDS011;35819;44.498;0.166;2022-10-16T16:01:05;5.03;;;3.17;;
49326;SDS011;35819;44.498;0.166;2022-10-16T16:03:31;9.15;;;2.95;;
49326;SDS011;35819;44.498;0.166;2022-10-16T16:06:03;9.65;;;2.42;;
49326;SDS011;35819;44.498;0.166;2022-10-16T16:08:32;4.63;;;2.42;;
49326;SDS011;35819;44.498;0.166;2022-10-16T16:11:03;10.60;;;3.80;;
49326;SDS011;35819;44.498;0.166;2022-10-16T16:13:35;9.30;;;3.67;;
49326;SDS011;35819;44.498;0.166;2022-10-16T16:16:07;6.53;;;3.22;;
49326;SDS011;35819;44.498;0.166;2022-10-16T16:18:36;9.35;;;3.85;;
49326;SDS011;35819;44.498;0.166;2022-10-16T16:21:03;9.50;;;3.80;;
49326;SDS011;35819;44.498;0.166;2022-10-16T16:23:29;4.47;;;4.13;;
49326;SDS011;35819;44.498;0.166;2022-10-16T16:26:15;10.45;;;4.95;;
49326;SDS011;35819;44.498;0.166;2022-10-16T16:28:51;15.32;;;6.32;;
49326;SDS011;35819;44.498;0.166;2022-10-16T16:31:18;3.38;;;2.80;;
49326;SDS011;35819;44.498;0.166;2022-10-16T16:33:46;5.50;;;3.28;;
49326;SDS011;35819;44.498;0.166;2022-10-16T16:36:12;10.25;;;5.20;;
49326;SDS011;35819;44.498;0.166;2022-10-16T16:38:37;7.53;;;2.58;;
49326;SDS011;35819;44.498;0.166;2022-10-16T16:41:14;3.80;;;3.20;;
49326;SDS011;35819;44.498;0.166;2022-10-16T16:43:46;9.82;;;4.80;;
49326;SDS011;35819;44.498;0.166;2022-10-16T16:46:12;5.65;;;4.10;;
49326;SDS011;35819;44.498;0.166;2022-10-16T16:48:39;13.63;;;4.32;;
49326;SDS011;35819;44.498;0.166;2022-10-16T16:51:06;10.30;;;3.67;;
49326;SDS011;35819;44.498;0.166;2022-10-16T16:53:34;7.63;;;5.93;;
49326;SDS011;35819;44.498;0.166;2022-10-16T16:56:01;8.63;;;4.35;;